sensor_id;sensor_type;location;lat;lon;timestamp;pressure;altitude;pressure_sealevel;temperature;humidity
57412;BME280;43247;52.828;-8.980;2023-06-05T00:00:47;102534.16;;;18.21;62.13
57412;BME280;43247;52.828;-8.980;2023-06-05T00:01:47;102535.94;;;18.20;61.43
57412;BME280;43247;52.828;-8.980;2023-06-05T00:02:48;102533.13;;;18.19;61.35
57412;BME280;43247;52.828;-8.980;2023-06-05T00:03:48;102533.79;;;18.18;61.55
57412;BME280;43247;52.828;-8.980;2023-06-05T00:04:48;102534.48;;;18.17;61.76
57412;BME280;43247;52.828;-8.980;2023-06-05T00:05:48;102534.74;;;18.16;62.01
57412;BME280;43247;52.828;-8.980;2023-06-05T00:06:48;102534.24;;;18.15;61.78
57412;BME280;43247;52.828;-8.980;2023-06-05T00:07:48;102533.73;;;18.14;61.46
57412;BME280;43247;52.828;-8.980;2023-06-05T00:08:49;102533.99;;;18.13;61.60
57412;BME280;43247;52.828;-8.980;2023-06-05T00:09:49;102533.23;;;18.11;61.55
57412;BME280;43247;52.828;-8.980;2023-06-05T00:10:50;102533.80;;;18.10;61.40
57412;BME280;43247;52.828;-8.980;2023-06-05T00:11:50;102532.90;;;18.09;61.40
57412;BME280;43247;52.828;-8.980;2023-06-05T00:12:50;102533.51;;;18.08;61.50
57412;BME280;43247;52.828;-8.980;2023-06-05T00:13:50;102537.40;;;18.07;61.63
57412;BME280;43247;52.828;-8.980;2023-06-05T00:14:51;102536.18;;;18.06;61.43
57412;BME280;43247;52.828;-8.980;2023-06-05T00:15:51;102536.84;;;18.05;61.50
57412;BME280;43247;52.828;-8.980;2023-06-05T00:16:51;102534.08;;;18.04;61.66
57412;BME280;43247;52.828;-8.980;2023-06-05T00:17:51;102535.22;;;18.02;61.71
57412;BME280;43247;52.828;-8.980;2023-06-05T00:18:51;102534.80;;;18.01;61.80
57412;BME280;43247;52.828;-8.980;2023-06-05T00:19:52;102535.27;;;17.99;62.08
57412;BME280;43247;52.828;-8.980;2023-06-05T00:20:52;102535.51;;;17.98;61.99
57412;BME280;43247;52.828;-8.980;2023-06-05T00:21:52;102535.98;;;17.97;61.65
57412;BME280;43247;52.828;-8.980;2023-06-05T00:22:52;102534.16;;;17.96;61.72
57412;BME280;43247;52.828;-8.980;2023-06-05T00:23:52;102535.84;;;17.96;61.51
57412;BME280;43247;52.828;-8.980;2023-06-05T00:24:52;102536.50;;;17.95;61.59
57412;BME280;43247;52.828;-8.980;2023-06-05T00:25:53;102534.61;;;17.92;61.39
57412;BME280;43247;52.828;-8.980;2023-06-05T00:26:53;102533.86;;;17.92;61.31
57412;BME280;43247;52.828;-8.980;2023-06-05T00:27:53;102536.03;;;17.90;61.30
57412;BME280;43247;52.828;-8.980;2023-06-05T00:28:53;102536.69;;;17.89;61.34
57412;BME280;43247;52.828;-8.980;2023-06-05T00:29:53;102537.00;;;17.88;61.34
57412;BME280;43247;52.828;-8.980;2023-06-05T00:30:53;102536.61;;;17.87;61.51
57412;BME280;43247;52.828;-8.980;2023-06-05T00:31:54;102538.04;;;17.87;61.75
57412;BME280;43247;52.828;-8.980;2023-06-05T00:32:55;102537.46;;;17.87;61.78
57412;BME280;43247;52.828;-8.980;2023-06-05T00:33:54;102535.64;;;17.86;61.42
57412;BME280;43247;52.828;-8.980;2023-06-05T00:34:54;102536.96;;;17.85;61.38
57412;BME280;43247;52.828;-8.980;2023-06-05T00:35:54;102538.44;;;17.84;61.72
57412;BME280;43247;52.828;-8.980;2023-06-05T00:36:54;102538.63;;;17.83;61.79
57412;BME280;43247;52.828;-8.980;2023-06-05T00:37:55;102538.98;;;17.82;61.78
57412;BME280;43247;52.828;-8.980;2023-06-05T00:38:55;102538.87;;;17.81;61.68
57412;BME280;43247;52.828;-8.980;2023-06-05T00:39:55;102539.85;;;17.80;61.56
57412;BME280;43247;52.828;-8.980;2023-06-05T00:40:55;102539.82;;;17.80;61.68
57412;BME280;43247;52.828;-8.980;2023-06-05T00:41:55;102540.96;;;17.79;61.40
57412;BME280;43247;52.828;-8.980;2023-06-05T00:42:55;102540.06;;;17.77;61.38
57412;BME280;43247;52.828;-8.980;2023-06-05T00:43:56;102542.05;;;17.76;61.50
57412;BME280;43247;52.828;-8.980;2023-06-05T00:44:56;102543.19;;;17.75;61.62
57412;BME280;43247;52.828;-8.980;2023-06-05T00:45:59;102542.73;;;17.73;61.59
57412;BME280;43247;52.828;-8.980;2023-06-05T00:46:56;102545.41;;;17.72;61.58
57412;BME280;43247;52.828;-8.980;2023-06-05T00:47:56;102542.56;;;17.70;61.57
57412;BME280;43247;52.828;-8.980;2023-06-05T00:48:56;102543.08;;;17.70;61.61
57412;BME280;43247;52.828;-8.980;2023-06-05T00:49:57;102543.70;;;17.69;61.74
57412;BME280;43247;52.828;-8.980;2023-06-05T00:50:57;102545.07;;;17.67;61.84
57412;BME280;43247;52.828;-8.980;2023-06-05T00:51:58;102542.75;;;17.66;61.93
57412;BME280;43247;52.828;-8.980;2023-06-05T00:52:57;102544.96;;;17.65;61.87
57412;BME280;43247;52.828;-8.980;2023-06-05T00:53:57;102546.49;;;17.64;61.80
57412;BME280;43247;52.828;-8.980;2023-06-05T00:54:57;102546.47;;;17.63;61.86
57412;BME280;43247;52.828;-8.980;2023-06-05T00:55:58;102545.54;;;17.62;61.96
57412;BME280;43247;52.828;-8.980;2023-06-05T00:56:58;102545.18;;;17.60;61.95
57412;BME280;43247;52.828;-8.980;2023-06-05T00:57:58;102546.14;;;17.59;62.06
57412;BME280;43247;52.828;-8.980;2023-06-05T00:58:58;102546.96;;;17.58;62.01
57412;BME280;43247;52.828;-8.980;2023-06-05T00:59:59;102546.02;;;17.57;61.85
57412;BME280;43247;52.828;-8.980;2023-06-05T01:01:00;102545.36;;;17.56;61.90
57412;BME280;43247;52.828;-8.980;2023-06-05T01:02:00;102546.39;;;17.55;61.83
57412;BME280;43247;52.828;-8.980;2023-06-05T01:03:00;102543.49;;;17.55;61.88
57412;BME280;43247;52.828;-8.980;2023-06-05T01:04:00;102543.50;;;17.54;61.98
57412;BME280;43247;52.828;-8.980;2023-06-05T01:05:00;102542.91;;;17.53;62.06
57412;BME280;43247;52.828;-8.980;2023-06-05T01:06:00;102542.25;;;17.52;62.15
57412;BME280;43247;52.828;-8.980;2023-06-05T01:07:00;102542.47;;;17.51;62.13
57412;BME280;43247;52.828;-8.980;2023-06-05T01:08:01;102540.46;;;17.49;62.12
57412;BME280;43247;52.828;-8.980;2023-06-05T01:09:01;102541.11;;;17.48;62.07
57412;BME280;43247;52.828;-8.980;2023-06-05T01:10:02;102538.97;;;17.47;62.30
57412;BME280;43247;52.828;-8.980;2023-06-05T01:11:02;102539.24;;;17.46;62.26
57412;BME280;43247;52.828;-8.980;2023-06-05T01:12:07;102539.26;;;17.45;62.29
57412;BME280;43247;52.828;-8.980;2023-06-05T01:13:06;102538.10;;;17.45;62.39
57412;BME280;43247;52.828;-8.980;2023-06-05T01:14:08;102538.35;;;17.43;62.46
57412;BME280;43247;52.828;-8.980;2023-06-05T01:15:02;102538.04;;;17.42;62.38
57412;BME280;43247;52.828;-8.980;2023-06-05T01:16:02;102536.47;;;17.41;62.30
57412;BME280;43247;52.828;-8.980;2023-06-05T01:17:02;102535.94;;;17.40;62.35
57412;BME280;43247;52.828;-8.980;2023-06-05T01:18:03;102534.35;;;17.39;62.26
57412;BME280;43247;52.828;-8.980;2023-06-05T01:19:03;102533.78;;;17.38;62.19
57412;BME280;43247;52.828;-8.980;2023-06-05T01:20:04;102533.76;;;17.37;62.38
57412;BME280;43247;52.828;-8.980;2023-06-05T01:21:03;102532.87;;;17.36;62.42
57412;BME280;43247;52.828;-8.980;2023-06-05T01:22:04;102531.41;;;17.35;62.43
57412;BME280;43247;52.828;-8.980;2023-06-05T01:23:04;102528.34;;;17.34;62.52
57412;BME280;43247;52.828;-8.980;2023-06-05T01:24:04;102530.30;;;17.34;62.71
57412;BME280;43247;52.828;-8.980;2023-06-05T01:25:06;102529.23;;;17.32;62.67
57412;BME280;43247;52.828;-8.980;2023-06-05T01:26:07;102530.33;;;17.31;62.59
57412;BME280;43247;52.828;-8.980;2023-06-05T01:27:10;102526.94;;;17.30;62.54
57412;BME280;43247;52.828;-8.980;2023-06-05T01:28:10;102528.95;;;17.29;62.55
57412;BME280;43247;52.828;-8.980;2023-06-05T01:29:06;102528.88;;;17.28;62.61
57412;BME280;43247;52.828;-8.980;2023-06-05T01:30:11;102529.57;;;17.27;62.64
57412;BME280;43247;52.828;-8.980;2023-06-05T01:31:09;102526.85;;;17.26;62.69
57412;BME280;43247;52.828;-8.980;2023-06-05T01:32:11;102527.32;;;17.25;62.72
57412;BME280;43247;52.828;-8.980;2023-06-05T01:33:09;102522.61;;;17.24;62.74
57412;BME280;43247;52.828;-8.980;2023-06-05T01:34:08;102522.31;;;17.23;62.80
57412;BME280;43247;52.828;-8.980;2023-06-05T01:35:08;102518.65;;;17.22;62.73
57412;BME280;43247;52.828;-8.980;2023-06-05T01:36:07;102518.76;;;17.21;62.70
57412;BME280;43247;52.828;-8.980;2023-06-05T01:37:07;102518.32;;;17.20;62.76
57412;BME280;43247;52.828;-8.980;2023-06-05T01:38:08;102515.27;;;17.19;62.86
57412;BME280;43247;52.828;-8.980;2023-06-05T01:39:08;102517.65;;;17.18;62.93
57412;BME280;43247;52.828;-8.980;2023-06-05T01:40:10;102517.12;;;17.17;62.86
57412;BME280;43247;52.828;-8.980;2023-06-05T01:41:08;102514.18;;;17.16;62.82
57412;BME280;43247;52.828;-8.980;2023-06-05T01:42:09;102511.58;;;17.15;62.87
57412;BME280;43247;52.828;-8.980;2023-06-05T01:43:09;102511.56;;;17.14;62.85
57412;BME280;43247;52.828;-8.980;2023-06-05T01:44:08;102512.00;;;17.13;62.82
57412;BME280;43247;52.828;-8.980;2023-06-05T01:45:09;102512.34;;;17.12;62.88
57412;BME280;43247;52.828;-8.980;2023-06-05T01:46:09;102513.16;;;17.11;62.88
57412;BME280;43247;52.828;-8.980;2023-06-05T01:47:08;102513.71;;;17.10;62.89
57412;BME280;43247;52.828;-8.980;2023-06-05T01:48:08;102512.69;;;17.08;62.92
57412;BME280;43247;52.828;-8.980;2023-06-05T01:49:10;102512.57;;;17.08;63.06
57412;BME280;43247;52.828;-8.980;2023-06-05T01:50:10;102513.26;;;17.07;63.09
57412;BME280;43247;52.828;-8.980;2023-06-05T01:51:09;102512.54;;;17.06;63.13
57412;BME280;43247;52.828;-8.980;2023-06-05T01:52:09;102511.93;;;17.05;63.21
57412;BME280;43247;52.828;-8.980;2023-06-05T01:53:09;102510.83;;;17.04;63.19
57412;BME280;43247;52.828;-8.980;2023-06-05T01:54:09;102510.24;;;17.03;63.11
57412;BME280;43247;52.828;-8.980;2023-06-05T01:55:16;102510.28;;;17.02;63.07
57412;BME280;43247;52.828;-8.980;2023-06-05T01:56:10;102510.81;;;17.01;63.09
57412;BME280;43247;52.828;-8.980;2023-06-05T01:57:10;102510.02;;;16.99;63.10
57412;BME280;43247;52.828;-8.980;2023-06-05T01:58:10;102509.18;;;16.99;63.15
57412;BME280;43247;52.828;-8.980;2023-06-05T01:59:10;102509.86;;;16.97;63.17
57412;BME280;43247;52.828;-8.980;2023-06-05T02:00:11;102508.10;;;16.96;63.19
57412;BME280;43247;52.828;-8.980;2023-06-05T02:01:11;102506.88;;;16.95;63.17
57412;BME280;43247;52.828;-8.980;2023-06-05T02:02:11;102507.83;;;16.94;63.20
57412;BME280;43247;52.828;-8.980;2023-06-05T02:03:11;102508.68;;;16.93;63.29
57412;BME280;43247;52.828;-8.980;2023-06-05T02:04:11;102508.80;;;16.92;63.30
57412;BME280;43247;52.828;-8.980;2023-06-05T02:05:12;102509.36;;;16.91;63.31
57412;BME280;43247;52.828;-8.980;2023-06-05T02:06:11;102510.41;;;16.90;63.30
57412;BME280;43247;52.828;-8.980;2023-06-05T02:07:12;102507.59;;;16.88;63.34
57412;BME280;43247;52.828;-8.980;2023-06-05T02:08:12;102507.68;;;16.88;63.41
57412;BME280;43247;52.828;-8.980;2023-06-05T02:09:12;102506.27;;;16.86;63.44
57412;BME280;43247;52.828;-8.980;2023-06-05T02:10:12;102506.56;;;16.86;63.59
57412;BME280;43247;52.828;-8.980;2023-06-05T02:11:12;102505.73;;;16.84;63.55
57412;BME280;43247;52.828;-8.980;2023-06-05T02:12:12;102505.27;;;16.83;63.75
57412;BME280;43247;52.828;-8.980;2023-06-05T02:13:13;102505.56;;;16.82;63.75
57412;BME280;43247;52.828;-8.980;2023-06-05T02:14:13;102505.29;;;16.81;63.81
57412;BME280;43247;52.828;-8.980;2023-06-05T02:15:14;102506.64;;;16.79;63.88
57412;BME280;43247;52.828;-8.980;2023-06-05T02:16:14;102506.66;;;16.78;63.93
57412;BME280;43247;52.828;-8.980;2023-06-05T02:17:14;102509.95;;;16.77;64.07
57412;BME280;43247;52.828;-8.980;2023-06-05T02:18:14;102508.39;;;16.76;64.08
57412;BME280;43247;52.828;-8.980;2023-06-05T02:19:14;102508.90;;;16.75;64.12
57412;BME280;43247;52.828;-8.980;2023-06-05T02:20:15;102509.15;;;16.74;64.05
57412;BME280;43247;52.828;-8.980;2023-06-05T02:21:14;102509.40;;;16.73;64.03
57412;BME280;43247;52.828;-8.980;2023-06-05T02:22:15;102510.48;;;16.72;64.02
57412;BME280;43247;52.828;-8.980;2023-06-05T02:23:15;102509.61;;;16.71;64.12
57412;BME280;43247;52.828;-8.980;2023-06-05T02:24:15;102508.43;;;16.70;64.04
57412;BME280;43247;52.828;-8.980;2023-06-05T02:25:15;102509.58;;;16.69;63.99
57412;BME280;43247;52.828;-8.980;2023-06-05T02:26:15;102509.02;;;16.67;64.01
57412;BME280;43247;52.828;-8.980;2023-06-05T02:27:15;102508.22;;;16.66;64.26
57412;BME280;43247;52.828;-8.980;2023-06-05T02:28:16;102504.04;;;16.65;64.33
57412;BME280;43247;52.828;-8.980;2023-06-05T02:29:16;102505.64;;;16.64;64.38
57412;BME280;43247;52.828;-8.980;2023-06-05T02:30:16;102503.60;;;16.62;64.09
57412;BME280;43247;52.828;-8.980;2023-06-05T02:31:16;102503.30;;;16.60;64.48
57412;BME280;43247;52.828;-8.980;2023-06-05T02:32:16;102503.45;;;16.59;64.54
57412;BME280;43247;52.828;-8.980;2023-06-05T02:33:16;102504.08;;;16.58;64.51
57412;BME280;43247;52.828;-8.980;2023-06-05T02:34:17;102502.98;;;16.58;64.50
57412;BME280;43247;52.828;-8.980;2023-06-05T02:35:17;102502.11;;;16.57;64.36
57412;BME280;43247;52.828;-8.980;2023-06-05T02:36:17;102502.09;;;16.55;64.39
57412;BME280;43247;52.828;-8.980;2023-06-05T02:37:17;102500.94;;;16.54;64.47
57412;BME280;43247;52.828;-8.980;2023-06-05T02:38:17;102500.24;;;16.53;64.41
57412;BME280;43247;52.828;-8.980;2023-06-05T02:39:17;102501.65;;;16.52;64.49
57412;BME280;43247;52.828;-8.980;2023-06-05T02:40:18;102503.57;;;16.50;64.49
57412;BME280;43247;52.828;-8.980;2023-06-05T02:41:18;102502.00;;;16.49;64.43
57412;BME280;43247;52.828;-8.980;2023-06-05T02:42:18;102502.27;;;16.48;64.69
57412;BME280;43247;52.828;-8.980;2023-06-05T02:43:18;102502.60;;;16.47;64.69
57412;BME280;43247;52.828;-8.980;2023-06-05T02:44:18;102499.59;;;16.45;64.68
57412;BME280;43247;52.828;-8.980;2023-06-05T02:45:18;102500.61;;;16.44;64.64
57412;BME280;43247;52.828;-8.980;2023-06-05T02:46:19;102498.61;;;16.43;64.81
57412;BME280;43247;52.828;-8.980;2023-06-05T02:47:19;102496.83;;;16.42;64.79
57412;BME280;43247;52.828;-8.980;2023-06-05T02:48:19;102498.75;;;16.41;64.77
57412;BME280;43247;52.828;-8.980;2023-06-05T02:49:19;102498.12;;;16.40;64.75
57412;BME280;43247;52.828;-8.980;2023-06-05T02:50:19;102498.08;;;16.38;64.74
57412;BME280;43247;52.828;-8.980;2023-06-05T02:51:19;102498.01;;;16.38;64.71
57412;BME280;43247;52.828;-8.980;2023-06-05T02:52:19;102499.26;;;16.37;64.78
57412;BME280;43247;52.828;-8.980;2023-06-05T02:53:20;102499.48;;;16.36;64.79
57412;BME280;43247;52.828;-8.980;2023-06-05T02:54:20;102498.23;;;16.35;64.57
57412;BME280;43247;52.828;-8.980;2023-06-05T02:55:20;102496.53;;;16.33;64.54
57412;BME280;43247;52.828;-8.980;2023-06-05T02:56:20;102496.02;;;16.32;64.69
57412;BME280;43247;52.828;-8.980;2023-06-05T02:57:20;102495.90;;;16.32;64.62
57412;BME280;43247;52.828;-8.980;2023-06-05T02:58:21;102496.16;;;16.30;64.57
57412;BME280;43247;52.828;-8.980;2023-06-05T02:59:21;102497.87;;;16.29;64.63
57412;BME280;43247;52.828;-8.980;2023-06-05T03:00:21;102501.02;;;16.28;64.69
57412;BME280;43247;52.828;-8.980;2023-06-05T03:01:21;102498.79;;;16.27;64.72
57412;BME280;43247;52.828;-8.980;2023-06-05T03:02:21;102498.36;;;16.26;64.84
57412;BME280;43247;52.828;-8.980;2023-06-05T03:03:22;102497.82;;;16.25;64.87
57412;BME280;43247;52.828;-8.980;2023-06-05T03:04:21;102498.05;;;16.23;64.81
57412;BME280;43247;52.828;-8.980;2023-06-05T03:05:22;102498.08;;;16.22;64.67
57412;BME280;43247;52.828;-8.980;2023-06-05T03:06:22;102498.03;;;16.21;64.64
57412;BME280;43247;52.828;-8.980;2023-06-05T03:07:22;102497.87;;;16.20;64.67
57412;BME280;43247;52.828;-8.980;2023-06-05T03:08:22;102496.74;;;16.19;64.74
57412;BME280;43247;52.828;-8.980;2023-06-05T03:09:22;102495.16;;;16.18;64.59
57412;BME280;43247;52.828;-8.980;2023-06-05T03:10:23;102492.67;;;16.16;64.64
57412;BME280;43247;52.828;-8.980;2023-06-05T03:11:23;102491.45;;;16.15;64.63
57412;BME280;43247;52.828;-8.980;2023-06-05T03:12:23;102494.36;;;16.14;64.64
57412;BME280;43247;52.828;-8.980;2023-06-05T03:13:23;102495.35;;;16.13;64.67
57412;BME280;43247;52.828;-8.980;2023-06-05T03:14:23;102493.59;;;16.12;64.56
57412;BME280;43247;52.828;-8.980;2023-06-05T03:15:23;102494.12;;;16.11;64.54
57412;BME280;43247;52.828;-8.980;2023-06-05T03:16:23;102494.87;;;16.10;64.53
57412;BME280;43247;52.828;-8.980;2023-06-05T03:17:24;102494.40;;;16.08;64.44
57412;BME280;43247;52.828;-8.980;2023-06-05T03:18:24;102495.63;;;16.07;64.49
57412;BME280;43247;52.828;-8.980;2023-06-05T03:19:24;102493.36;;;16.06;64.48
57412;BME280;43247;52.828;-8.980;2023-06-05T03:20:24;102494.51;;;16.04;64.46
57412;BME280;43247;52.828;-8.980;2023-06-05T03:21:24;102492.98;;;16.03;64.44
57412;BME280;43247;52.828;-8.980;2023-06-05T03:22:24;102493.49;;;16.02;64.58
57412;BME280;43247;52.828;-8.980;2023-06-05T03:23:25;102493.25;;;16.01;64.60
57412;BME280;43247;52.828;-8.980;2023-06-05T03:24:25;102493.30;;;15.99;64.58
57412;BME280;43247;52.828;-8.980;2023-06-05T03:25:25;102493.73;;;15.98;64.57
57412;BME280;43247;52.828;-8.980;2023-06-05T03:26:25;102496.10;;;15.97;64.62
57412;BME280;43247;52.828;-8.980;2023-06-05T03:27:25;102496.37;;;15.96;64.61
57412;BME280;43247;52.828;-8.980;2023-06-05T03:28:25;102492.84;;;15.95;64.69
57412;BME280;43247;52.828;-8.980;2023-06-05T03:29:26;102491.44;;;15.93;64.73
57412;BME280;43247;52.828;-8.980;2023-06-05T03:30:26;102489.39;;;15.92;64.78
57412;BME280;43247;52.828;-8.980;2023-06-05T03:31:26;102488.38;;;15.90;64.69
57412;BME280;43247;52.828;-8.980;2023-06-05T03:32:26;102487.99;;;15.89;64.90
57412;BME280;43247;52.828;-8.980;2023-06-05T03:33:26;102486.86;;;15.88;65.04
57412;BME280;43247;52.828;-8.980;2023-06-05T03:34:26;102486.21;;;15.87;65.02
57412;BME280;43247;52.828;-8.980;2023-06-05T03:35:27;102487.00;;;15.86;65.02
57412;BME280;43247;52.828;-8.980;2023-06-05T03:36:27;102487.73;;;15.84;65.00
57412;BME280;43247;52.828;-8.980;2023-06-05T03:37:27;102486.91;;;15.84;65.18
57412;BME280;43247;52.828;-8.980;2023-06-05T03:38:27;102483.77;;;15.82;65.32
57412;BME280;43247;52.828;-8.980;2023-06-05T03:39:27;102484.67;;;15.82;65.45
57412;BME280;43247;52.828;-8.980;2023-06-05T03:40:28;102484.89;;;15.80;65.42
57412;BME280;43247;52.828;-8.980;2023-06-05T03:41:28;102486.20;;;15.79;65.31
57412;BME280;43247;52.828;-8.980;2023-06-05T03:42:28;102481.55;;;15.78;65.45
57412;BME280;43247;52.828;-8.980;2023-06-05T03:43:28;102485.44;;;15.78;65.35
57412;BME280;43247;52.828;-8.980;2023-06-05T03:44:29;102482.89;;;15.76;65.49
57412;BME280;43247;52.828;-8.980;2023-06-05T03:45:29;102481.05;;;15.76;65.49
57412;BME280;43247;52.828;-8.980;2023-06-05T03:46:29;102483.13;;;15.75;65.62
57412;BME280;43247;52.828;-8.980;2023-06-05T03:47:29;102482.72;;;15.74;65.60
57412;BME280;43247;52.828;-8.980;2023-06-05T03:48:30;102482.88;;;15.72;65.67
57412;BME280;43247;52.828;-8.980;2023-06-05T03:49:30;102483.51;;;15.71;65.64
57412;BME280;43247;52.828;-8.980;2023-06-05T03:50:30;102483.05;;;15.70;65.74
57412;BME280;43247;52.828;-8.980;2023-06-05T03:51:30;102483.91;;;15.69;65.70
57412;BME280;43247;52.828;-8.980;2023-06-05T03:52:31;102482.42;;;15.68;65.73
57412;BME280;43247;52.828;-8.980;2023-06-05T03:53:31;102480.87;;;15.67;65.75
57412;BME280;43247;52.828;-8.980;2023-06-05T03:54:31;102480.98;;;15.66;65.71
57412;BME280;43247;52.828;-8.980;2023-06-05T03:55:32;102482.01;;;15.65;65.79
57412;BME280;43247;52.828;-8.980;2023-06-05T03:56:31;102482.13;;;15.64;65.92
57412;BME280;43247;52.828;-8.980;2023-06-05T03:57:31;102480.27;;;15.63;65.99
57412;BME280;43247;52.828;-8.980;2023-06-05T03:58:32;102479.30;;;15.62;65.98
57412;BME280;43247;52.828;-8.980;2023-06-05T03:59:32;102479.30;;;15.61;66.04
57412;BME280;43247;52.828;-8.980;2023-06-05T04:00:32;102477.95;;;15.59;66.02
57412;BME280;43247;52.828;-8.980;2023-06-05T04:01:32;102479.47;;;15.59;66.09
57412;BME280;43247;52.828;-8.980;2023-06-05T04:02:32;102481.38;;;15.58;66.13
57412;BME280;43247;52.828;-8.980;2023-06-05T04:03:33;102482.18;;;15.57;66.17
57412;BME280;43247;52.828;-8.980;2023-06-05T04:04:33;102483.22;;;15.56;66.27
57412;BME280;43247;52.828;-8.980;2023-06-05T04:05:33;102482.21;;;15.55;66.31
57412;BME280;43247;52.828;-8.980;2023-06-05T04:06:33;102483.51;;;15.54;66.28
57412;BME280;43247;52.828;-8.980;2023-06-05T04:07:34;102483.99;;;15.53;66.24
57412;BME280;43247;52.828;-8.980;2023-06-05T04:08:34;102484.84;;;15.52;66.15
57412;BME280;43247;52.828;-8.980;2023-06-05T04:09:34;102486.64;;;15.50;66.34
57412;BME280;43247;52.828;-8.980;2023-06-05T04:10:34;102486.08;;;15.49;66.41
57412;BME280;43247;52.828;-8.980;2023-06-05T04:11:34;102485.22;;;15.47;66.37
57412;BME280;43247;52.828;-8.980;2023-06-05T04:12:34;102484.51;;;15.46;66.40
57412;BME280;43247;52.828;-8.980;2023-06-05T04:13:35;102485.74;;;15.45;66.50
57412;BME280;43247;52.828;-8.980;2023-06-05T04:14:35;102483.57;;;15.44;66.53
57412;BME280;43247;52.828;-8.980;2023-06-05T04:15:35;102480.78;;;15.42;66.49
57412;BME280;43247;52.828;-8.980;2023-06-05T04:16:36;102480.49;;;15.41;66.59
57412;BME280;43247;52.828;-8.980;2023-06-05T04:17:35;102480.98;;;15.40;66.53
57412;BME280;43247;52.828;-8.980;2023-06-05T04:18:35;102484.16;;;15.39;66.44
57412;BME280;43247;52.828;-8.980;2023-06-05T04:19:36;102483.78;;;15.37;66.46
57412;BME280;43247;52.828;-8.980;2023-06-05T04:20:36;102483.93;;;15.36;66.44
57412;BME280;43247;52.828;-8.980;2023-06-05T04:21:37;102485.62;;;15.35;66.48
57412;BME280;43247;52.828;-8.980;2023-06-05T04:22:37;102484.57;;;15.34;66.50
57412;BME280;43247;52.828;-8.980;2023-06-05T04:23:37;102485.25;;;15.33;66.45
57412;BME280;43247;52.828;-8.980;2023-06-05T04:24:37;102486.39;;;15.32;66.41
57412;BME280;43247;52.828;-8.980;2023-06-05T04:25:37;102486.08;;;15.31;66.46
57412;BME280;43247;52.828;-8.980;2023-06-05T04:26:39;102486.90;;;15.30;66.48
57412;BME280;43247;52.828;-8.980;2023-06-05T04:27:38;102485.82;;;15.29;66.51
57412;BME280;43247;52.828;-8.980;2023-06-05T04:28:38;102484.89;;;15.28;66.57
57412;BME280;43247;52.828;-8.980;2023-06-05T04:29:38;102482.86;;;15.26;66.45
57412;BME280;43247;52.828;-8.980;2023-06-05T04:30:38;102482.49;;;15.25;66.61
57412;BME280;43247;52.828;-8.980;2023-06-05T04:31:38;102484.33;;;15.24;66.78
57412;BME280;43247;52.828;-8.980;2023-06-05T04:32:39;102486.31;;;15.24;66.67
57412;BME280;43247;52.828;-8.980;2023-06-05T04:33:39;102488.13;;;15.22;66.73
57412;BME280;43247;52.828;-8.980;2023-06-05T04:34:39;102488.32;;;15.22;66.86
57412;BME280;43247;52.828;-8.980;2023-06-05T04:35:39;102488.79;;;15.20;66.78
57412;BME280;43247;52.828;-8.980;2023-06-05T04:36:40;102487.86;;;15.19;66.91
57412;BME280;43247;52.828;-8.980;2023-06-05T04:37:40;102487.16;;;15.18;66.91
57412;BME280;43247;52.828;-8.980;2023-06-05T04:38:40;102488.99;;;15.17;66.91
57412;BME280;43247;52.828;-8.980;2023-06-05T04:39:40;102489.20;;;15.16;67.01
57412;BME280;43247;52.828;-8.980;2023-06-05T04:40:40;102488.96;;;15.16;67.09
57412;BME280;43247;52.828;-8.980;2023-06-05T04:41:41;102488.24;;;15.15;67.28
57412;BME280;43247;52.828;-8.980;2023-06-05T04:42:41;102491.22;;;15.14;67.32
57412;BME280;43247;52.828;-8.980;2023-06-05T04:43:41;102492.38;;;15.13;67.25
57412;BME280;43247;52.828;-8.980;2023-06-05T04:44:41;102490.40;;;15.12;67.30
57412;BME280;43247;52.828;-8.980;2023-06-05T04:45:41;102491.25;;;15.10;67.33
57412;BME280;43247;52.828;-8.980;2023-06-05T04:46:41;102489.67;;;15.10;67.32
57412;BME280;43247;52.828;-8.980;2023-06-05T04:47:42;102488.19;;;15.09;67.34
57412;BME280;43247;52.828;-8.980;2023-06-05T04:48:42;102486.86;;;15.08;67.36
57412;BME280;43247;52.828;-8.980;2023-06-05T04:49:42;102487.24;;;15.07;67.40
57412;BME280;43247;52.828;-8.980;2023-06-05T04:50:42;102488.45;;;15.06;67.41
57412;BME280;43247;52.828;-8.980;2023-06-05T04:51:42;102490.49;;;15.06;67.40
57412;BME280;43247;52.828;-8.980;2023-06-05T04:52:43;102490.93;;;15.05;67.44
57412;BME280;43247;52.828;-8.980;2023-06-05T04:53:43;102490.59;;;15.04;67.49
57412;BME280;43247;52.828;-8.980;2023-06-05T04:54:43;102491.09;;;15.04;67.51
57412;BME280;43247;52.828;-8.980;2023-06-05T04:55:43;102491.35;;;15.03;67.52
57412;BME280;43247;52.828;-8.980;2023-06-05T04:56:44;102491.54;;;15.03;67.48
57412;BME280;43247;52.828;-8.980;2023-06-05T04:57:44;102491.34;;;15.02;67.71
57412;BME280;43247;52.828;-8.980;2023-06-05T04:58:44;102491.22;;;15.01;67.72
57412;BME280;43247;52.828;-8.980;2023-06-05T04:59:45;102491.96;;;15.01;67.70
57412;BME280;43247;52.828;-8.980;2023-06-05T05:00:44;102493.50;;;15.00;67.78
57412;BME280;43247;52.828;-8.980;2023-06-05T05:01:44;102493.89;;;14.99;67.78
57412;BME280;43247;52.828;-8.980;2023-06-05T05:02:45;102491.57;;;14.99;67.85
57412;BME280;43247;52.828;-8.980;2023-06-05T05:03:45;102491.66;;;14.99;67.90
57412;BME280;43247;52.828;-8.980;2023-06-05T05:04:45;102491.50;;;14.98;67.95
57412;BME280;43247;52.828;-8.980;2023-06-05T05:05:45;102493.78;;;14.98;67.95
57412;BME280;43247;52.828;-8.980;2023-06-05T05:06:45;102493.47;;;14.97;68.02
57412;BME280;43247;52.828;-8.980;2023-06-05T05:07:45;102494.47;;;14.97;68.08
57412;BME280;43247;52.828;-8.980;2023-06-05T05:08:46;102494.12;;;14.96;68.04
57412;BME280;43247;52.828;-8.980;2023-06-05T05:09:46;102493.51;;;14.96;68.21
57412;BME280;43247;52.828;-8.980;2023-06-05T05:10:46;102493.42;;;14.96;68.21